createdAt,value
2019-01-22T00:00:53.824Z,46.73
2019-01-22T00:03:20.775Z,41.70
2019-01-22T00:05:47.659Z,44.37
2019-01-22T00:08:14.660Z,45.47
2019-01-22T00:10:41.739Z,44.90
2019-01-22T00:13:09.006Z,44.50
2019-01-22T00:15:36.120Z,43.80
2019-01-22T00:18:03.480Z,45.80
2019-01-22T00:20:30.479Z,43.10
2019-01-22T00:23:02.772Z,44.57
2019-01-22T00:25:26.257Z,44.40
2019-01-22T00:27:53.504Z,43.67
2019-01-22T00:30:20.487Z,45.63
2019-01-22T00:32:47.393Z,43.70
2019-01-22T00:35:14.560Z,45.80
2019-01-22T00:37:41.828Z,47.00
2019-01-22T00:40:09.827Z,45.60
2019-01-22T00:42:36.824Z,45.40
2019-01-22T00:45:03.963Z,43.50
2019-01-22T00:47:30.837Z,45.60
2019-01-22T00:49:57.666Z,43.67
2019-01-22T00:52:24.596Z,45.60
2019-01-22T00:54:51.631Z,45.00
2019-01-22T00:57:18.589Z,44.03
2019-01-22T00:59:46.653Z,44.90
2019-01-22T01:02:13.741Z,45.33
2019-01-22T01:04:40.755Z,44.90
2019-01-22T01:07:07.704Z,45.43
2019-01-22T01:09:34.638Z,43.30
2019-01-22T01:12:01.486Z,46.40
2019-01-22T01:14:28.504Z,43.40
2019-01-22T01:16:55.588Z,43.50
2019-01-22T01:19:22.443Z,44.60
2019-01-22T01:21:50.015Z,42.57
2019-01-22T01:24:17.391Z,43.93
2019-01-22T01:26:44.251Z,43.93
2019-01-22T01:29:11.182Z,44.43
2019-01-22T01:31:38.108Z,43.83
2019-01-22T01:34:05.061Z,44.90
2019-01-22T01:36:32.275Z,44.20
2019-01-22T01:38:59.187Z,44.83
2019-01-22T01:41:26.044Z,42.27
2019-01-22T01:43:55.827Z,43.63
2019-01-22T01:46:22.925Z,43.07
2019-01-22T01:48:50.044Z,43.80
2019-01-22T01:51:16.887Z,40.47
2019-01-22T01:53:43.743Z,42.23
2019-01-22T01:56:10.709Z,43.43
2019-01-22T01:58:37.935Z,42.10
2019-01-22T02:01:05.027Z,40.90
2019-01-22T02:03:31.850Z,42.80
2019-01-22T02:05:59.001Z,43.60
2019-01-22T02:08:25.986Z,43.20
2019-01-22T02:10:52.925Z,41.00
2019-01-22T02:13:30.892Z,39.90
2019-01-22T02:16:01.073Z,41.30
2019-01-22T02:18:48.096Z,43.40
2019-01-22T02:21:25.861Z,43.80
2019-01-22T02:24:11.555Z,41.63
2019-01-22T02:26:50.235Z,42.60
2019-01-22T02:29:20.120Z,43.67
2019-01-22T02:31:55.509Z,40.97
2019-01-22T02:34:29.187Z,40.73
2019-01-22T02:37:15.752Z,38.50
2019-01-22T02:39:45.609Z,40.53
2019-01-22T02:42:24.723Z,39.90
2019-01-22T02:45:00.349Z,39.17
2019-01-22T02:47:29.936Z,40.50
2019-01-22T02:50:11.001Z,37.40
2019-01-22T02:52:42.848Z,38.50
2019-01-22T02:55:15.778Z,38.20
2019-01-22T02:58:02.377Z,37.13
2019-01-22T03:00:48.019Z,35.50
2019-01-22T03:03:31.128Z,35.83
2019-01-22T03:06:02.594Z,36.87
2019-01-22T03:08:58.637Z,35.13
2019-01-22T03:12:03.416Z,35.93
2019-01-22T03:14:37.718Z,33.63
2019-01-22T03:17:09.300Z,37.27
2019-01-22T03:19:39.920Z,36.37
2019-01-22T03:22:14.604Z,35.70
2019-01-22T03:24:48.312Z,37.77
2019-01-22T03:27:31.124Z,34.07
2019-01-22T03:30:05.071Z,31.90
2019-01-22T03:32:37.662Z,33.50
2019-01-22T03:35:39.378Z,32.97
2019-01-22T03:38:34.766Z,31.83
2019-01-22T03:41:15.431Z,31.80
2019-01-22T03:43:49.320Z,33.60
2019-01-22T03:46:19.323Z,31.43
2019-01-22T03:48:57.277Z,32.33
2019-01-22T03:51:26.399Z,31.60
2019-01-22T03:54:22.238Z,29.37
2019-01-22T03:56:55.231Z,34.87
2019-01-22T03:59:22.091Z,36.80
2019-01-22T04:01:49.096Z,33.83
2019-01-22T04:04:15.940Z,35.93
2019-01-22T04:06:48.266Z,37.17
2019-01-22T04:09:17.248Z,37.37
2019-01-22T04:11:45.800Z,34.77
2019-01-22T04:14:12.953Z,37.60
2019-01-22T04:16:40.091Z,36.87
2019-01-22T04:19:07.057Z,37.50
2019-01-22T04:21:36.449Z,37.50
2019-01-22T04:24:12.479Z,38.17
2019-01-22T04:27:04.950Z,39.33
2019-01-22T04:29:53.474Z,35.90
2019-01-22T04:32:26.306Z,38.00
2019-01-22T04:35:12.891Z,36.70
2019-01-22T04:37:54.510Z,39.40
2019-01-22T04:40:39.983Z,34.87
2019-01-22T04:43:13.321Z,36.87
2019-01-22T04:45:59.723Z,37.33
2019-01-22T04:48:33.253Z,36.40
2019-01-22T04:51:06.808Z,31.70
2019-01-22T04:53:43.500Z,34.80
2019-01-22T04:56:28.792Z,33.67
2019-01-22T04:58:59.642Z,35.23
2019-01-22T05:01:46.284Z,31.13
2019-01-22T05:04:18.119Z,28.50
2019-01-22T05:06:52.355Z,29.53
2019-01-22T05:09:38.376Z,32.50
2019-01-22T05:12:23.524Z,33.70
2019-01-22T05:15:04.596Z,33.27
2019-01-22T05:17:49.820Z,33.73
2019-01-22T05:20:22.885Z,33.00
2019-01-22T05:23:02.169Z,31.70
2019-01-22T05:25:48.780Z,35.13
2019-01-22T05:28:21.135Z,36.00
2019-01-22T05:31:03.829Z,33.20
2019-01-22T05:33:53.652Z,33.03
2019-01-22T05:36:38.947Z,32.63
2019-01-22T05:39:08.807Z,32.67
2019-01-22T05:41:55.434Z,31.63
2019-01-22T05:44:37.644Z,34.50
2019-01-22T05:47:09.740Z,33.93
2019-01-22T05:49:56.343Z,32.90
2019-01-22T05:52:37.398Z,30.47
2019-01-22T05:55:07.158Z,32.07
2019-01-22T05:57:41.164Z,35.40
2019-01-22T06:00:26.544Z,33.97
2019-01-22T06:02:56.048Z,32.17
2019-01-22T06:05:28.832Z,33.73
2019-01-22T06:08:04.328Z,32.67
2019-01-22T06:10:41.491Z,33.57
2019-01-22T06:13:28.095Z,35.50
2019-01-22T06:16:16.649Z,34.53
2019-01-22T06:19:03.212Z,34.13
2019-01-22T06:21:55.940Z,35.40
2019-01-22T06:24:35.177Z,31.77
2019-01-22T06:27:04.297Z,33.60
2019-01-22T06:30:08.784Z,33.27
2019-01-22T06:32:38.644Z,33.00
2019-01-22T06:35:24.000Z,35.40
2019-01-22T06:37:53.644Z,34.63
2019-01-22T06:40:38.836Z,34.57
2019-01-22T06:43:12.419Z,34.67
2019-01-22T06:45:46.572Z,35.67
2019-01-22T06:48:34.129Z,31.67
2019-01-22T06:51:08.481Z,34.47
2019-01-22T06:53:57.897Z,33.67
2019-01-22T06:56:35.076Z,34.00
2019-01-22T06:59:19.860Z,31.43
2019-01-22T07:02:07.615Z,30.10
2019-01-22T07:04:54.214Z,33.30
2019-01-22T07:07:46.577Z,34.60
2019-01-22T07:10:17.234Z,34.43
2019-01-22T07:13:02.501Z,35.33
2019-01-22T07:15:40.619Z,35.27
2019-01-22T07:18:12.213Z,34.40
2019-01-22T07:21:08.051Z,34.03
2019-01-22T07:24:00.367Z,33.23
2019-01-22T07:26:33.246Z,34.37
2019-01-22T07:29:18.561Z,28.50
2019-01-22T07:32:08.388Z,30.10
2019-01-22T07:35:12.934Z,32.57
2019-01-22T07:37:51.714Z,30.87
2019-01-22T07:40:32.149Z,24.00
2019-01-22T07:43:06.844Z,32.47
2019-01-22T07:45:48.370Z,30.43
2019-01-22T07:48:17.957Z,31.40
2019-01-22T07:51:10.728Z,33.33
2019-01-22T07:53:50.346Z,29.20
2019-01-22T07:56:20.150Z,31.70
2019-01-22T07:58:54.152Z,33.40
2019-01-22T08:01:27.492Z,28.67
2019-01-22T08:04:08.061Z,29.57
2019-01-22T08:06:43.769Z,30.50
2019-01-22T08:09:17.370Z,28.90
2019-01-22T08:12:09.956Z,29.80
2019-01-22T08:14:59.048Z,29.60
2019-01-22T08:17:44.187Z,30.23
2019-01-22T08:20:42.956Z,33.37
2019-01-22T08:23:13.248Z,32.60
2019-01-22T08:25:49.760Z,31.57
2019-01-22T08:28:19.517Z,30.00
2019-01-22T08:31:04.623Z,31.40
2019-01-22T08:33:40.112Z,28.87
2019-01-22T08:36:10.408Z,29.70
2019-01-22T08:38:43.505Z,30.30
2019-01-22T08:41:18.489Z,31.17
2019-01-22T08:44:03.517Z,30.10
2019-01-22T08:46:37.191Z,30.77
2019-01-22T08:49:41.694Z,31.70
2019-01-22T08:52:34.358Z,29.60
2019-01-22T08:55:14.896Z,30.90
2019-01-22T08:57:51.752Z,32.17
2019-01-22T09:00:34.408Z,33.03
2019-01-22T09:03:35.935Z,31.20
2019-01-22T09:06:14.980Z,32.47
2019-01-22T09:08:45.595Z,30.57
2019-01-22T09:11:26.686Z,30.10
2019-01-22T09:13:59.729Z,32.93
2019-01-22T09:16:49.868Z,31.87
2019-01-22T09:19:21.829Z,31.73
2019-01-22T09:22:12.037Z,33.07
2019-01-22T09:24:44.733Z,32.60
2019-01-22T09:27:35.025Z,31.70
2019-01-22T09:30:20.466Z,27.60
2019-01-22T09:32:56.614Z,28.57
2019-01-22T09:36:01.092Z,32.33
2019-01-22T09:38:28.077Z,29.17
2019-01-22T09:40:55.020Z,31.10
2019-01-22T09:43:22.036Z,29.60
2019-01-22T09:45:49.005Z,31.80
2019-01-22T09:48:15.897Z,29.40
2019-01-22T09:50:42.987Z,30.80
2019-01-22T09:53:09.889Z,29.20
2019-01-22T09:55:36.779Z,31.60
2019-01-22T09:58:03.801Z,30.87
2019-01-22T10:00:30.837Z,29.53
2019-01-22T10:02:57.698Z,25.97
2019-01-22T10:05:24.593Z,29.47
2019-01-22T10:07:51.543Z,28.90
2019-01-22T10:10:18.864Z,26.27
2019-01-22T10:12:45.911Z,23.20
2019-01-22T10:15:14.175Z,27.07
2019-01-22T10:17:41.037Z,25.60
2019-01-22T10:20:09.515Z,24.67
2019-01-22T10:22:36.401Z,25.37
2019-01-22T10:25:03.632Z,26.67
2019-01-22T10:27:30.533Z,28.30
2019-01-22T10:29:57.993Z,29.73
2019-01-22T10:32:25.193Z,26.60
2019-01-22T10:34:52.760Z,29.20
2019-01-22T10:37:20.112Z,28.63
2019-01-22T10:39:47.356Z,28.00
2019-01-22T10:42:14.359Z,29.10
2019-01-22T10:44:42.446Z,27.23
2019-01-22T10:47:09.976Z,28.80
2019-01-22T10:49:37.248Z,26.73
2019-01-22T10:52:04.217Z,28.97
2019-01-22T10:54:31.266Z,28.10
2019-01-22T10:56:58.127Z,28.87
2019-01-22T10:59:25.784Z,28.93
2019-01-22T11:01:52.758Z,27.00
2019-01-22T11:04:19.859Z,29.70
2019-01-22T11:06:46.720Z,28.57
2019-01-22T11:09:13.685Z,25.47
2019-01-22T11:11:40.533Z,26.50
2019-01-22T11:14:07.408Z,26.27
2019-01-22T11:16:34.330Z,24.43
2019-01-22T11:19:01.189Z,27.17
2019-01-22T11:21:28.095Z,25.03
2019-01-22T11:23:54.964Z,24.40
2019-01-22T11:26:22.055Z,26.30
2019-01-22T11:28:48.920Z,26.73
2019-01-22T11:31:15.851Z,26.47
2019-01-22T11:33:42.870Z,26.57
2019-01-22T11:36:09.716Z,24.83
2019-01-22T11:38:36.581Z,26.97
2019-01-22T11:41:03.597Z,25.60
2019-01-22T11:43:30.507Z,25.73
2019-01-22T11:45:57.331Z,22.00
2019-01-22T11:48:24.416Z,26.87
2019-01-22T11:50:52.029Z,25.93
2019-01-22T11:53:18.949Z,24.20
2019-01-22T11:55:50.479Z,26.70
2019-01-22T11:58:14.723Z,25.40
2019-01-22T12:00:55.600Z,25.23
2019-01-22T12:03:22.669Z,24.10
2019-01-22T12:05:53.165Z,26.23
2019-01-22T12:08:18.441Z,24.17
2019-01-22T12:10:45.305Z,25.73
2019-01-22T12:13:12.160Z,22.60
2019-01-22T12:15:39.218Z,22.77
2019-01-22T12:18:06.253Z,26.00
2019-01-22T12:20:33.293Z,23.30
2019-01-22T12:23:00.279Z,23.40
2019-01-22T12:25:27.182Z,21.40
2019-01-22T12:27:54.130Z,23.27
2019-01-22T12:30:22.447Z,23.60
2019-01-22T12:32:49.385Z,22.27
2019-01-22T12:35:16.354Z,23.23
2019-01-22T12:37:43.208Z,22.03
2019-01-22T12:40:10.521Z,25.80
2019-01-22T12:42:37.484Z,24.10
2019-01-22T12:45:05.877Z,26.10
2019-01-22T12:47:32.701Z,26.70
2019-01-22T12:49:59.506Z,26.03
2019-01-22T12:52:27.183Z,26.83
2019-01-22T12:54:54.124Z,25.87
2019-01-22T12:57:20.911Z,21.90
2019-01-22T12:59:47.735Z,20.20
2019-01-22T13:02:14.507Z,22.47
2019-01-22T13:04:42.176Z,23.40
2019-01-22T13:07:09.326Z,20.70
2019-01-22T13:09:36.928Z,23.00
2019-01-22T13:12:03.827Z,26.20
2019-01-22T13:14:30.672Z,23.40
2019-01-22T13:16:57.594Z,23.73
2019-01-22T13:19:24.574Z,25.00
2019-01-22T13:21:51.857Z,23.87
2019-01-22T13:24:18.986Z,20.17
2019-01-22T13:26:46.173Z,24.50
2019-01-22T13:29:13.294Z,22.70
2019-01-22T13:31:40.350Z,24.90
2019-01-22T13:34:07.462Z,23.97
2019-01-22T13:36:34.552Z,23.90
2019-01-22T13:39:01.569Z,23.17
2019-01-22T13:41:28.736Z,24.90
2019-01-22T13:43:55.855Z,21.97
2019-01-22T13:46:23.139Z,20.03
2019-01-22T13:48:50.320Z,23.33
2019-01-22T13:51:17.433Z,19.20
2019-01-22T13:53:44.570Z,16.90
2019-01-22T13:56:18.392Z,19.33
2019-01-22T13:58:40.846Z,20.33
2019-01-22T14:01:07.989Z,20.63
2019-01-22T14:03:35.276Z,19.07
2019-01-22T14:06:02.379Z,21.77
2019-01-22T14:08:29.258Z,18.37
2019-01-22T14:10:56.060Z,22.63
2019-01-22T14:13:23.001Z,19.93
2019-01-22T14:15:49.977Z,21.57
2019-01-22T14:18:16.812Z,21.20
2019-01-22T14:20:43.696Z,20.40
2019-01-22T14:23:10.576Z,20.03
2019-01-22T14:25:37.492Z,20.27
2019-01-22T14:28:04.622Z,19.50
2019-01-22T14:30:32.618Z,20.63
2019-01-22T14:32:59.719Z,20.10
2019-01-22T14:35:26.585Z,20.73
2019-01-22T14:37:53.447Z,20.70
2019-01-22T14:40:21.482Z,15.93
2019-01-22T14:42:48.492Z,20.77
2019-01-22T14:45:15.370Z,23.67
2019-01-22T14:47:42.219Z,22.10
2019-01-22T14:50:10.733Z,20.40
2019-01-22T14:52:37.693Z,20.03
2019-01-22T14:55:05.768Z,19.33
2019-01-22T14:57:32.665Z,17.53
2019-01-22T14:59:59.487Z,17.10
2019-01-22T15:02:26.348Z,19.83
2019-01-22T15:04:53.252Z,20.73
2019-01-22T15:07:20.072Z,17.73
2019-01-22T15:09:46.874Z,20.27
2019-01-22T15:12:13.757Z,18.07
2019-01-22T15:14:40.681Z,18.00
2019-01-22T15:17:07.541Z,18.70
2019-01-22T15:19:34.813Z,21.33
2019-01-22T15:22:01.628Z,19.03
2019-01-22T15:24:28.489Z,19.07
2019-01-22T15:26:55.559Z,22.20
2019-01-22T15:29:22.395Z,20.03
2019-01-22T15:31:49.263Z,20.83
2019-01-22T15:34:16.348Z,21.30
2019-01-22T15:36:43.188Z,22.23
2019-01-22T15:39:10.032Z,20.63
2019-01-22T15:41:36.865Z,20.13
2019-01-22T15:44:03.813Z,21.67
2019-01-22T15:46:30.613Z,20.53
2019-01-22T15:48:57.748Z,19.00
2019-01-22T15:51:24.540Z,21.73
2019-01-22T15:53:51.442Z,16.87
2019-01-22T15:56:18.650Z,18.50
2019-01-22T15:58:45.543Z,21.00
2019-01-22T16:01:12.388Z,18.27
2019-01-22T16:03:39.533Z,20.27
2019-01-22T16:06:06.440Z,20.73
2019-01-22T16:08:33.302Z,25.40
2019-01-22T16:11:00.351Z,24.70
2019-01-22T16:13:27.218Z,21.40
2019-01-22T16:15:54.198Z,22.40
2019-01-22T16:18:21.064Z,19.80
2019-01-22T16:20:48.021Z,23.13
2019-01-22T16:23:14.944Z,22.03
2019-01-22T16:25:41.831Z,22.30
2019-01-22T16:28:08.764Z,19.90
2019-01-22T16:30:35.922Z,21.43
2019-01-22T16:33:03.157Z,19.07
2019-01-22T16:35:30.121Z,21.63
2019-01-22T16:37:56.985Z,21.80
2019-01-22T16:40:24.378Z,23.00
2019-01-22T16:42:52.399Z,18.47
2019-01-22T16:45:20.685Z,21.13
2019-01-22T16:47:47.583Z,21.40
2019-01-22T16:50:15.563Z,18.77
2019-01-22T16:52:42.454Z,18.60
2019-01-22T16:55:11.067Z,20.60
2019-01-22T16:57:37.930Z,20.57
2019-01-22T17:00:06.109Z,18.07
2019-01-22T17:02:33.394Z,15.70
2019-01-22T17:05:00.281Z,22.87
2019-01-22T17:07:27.204Z,25.50
2019-01-22T17:09:54.085Z,18.27
2019-01-22T17:12:21.041Z,19.60
2019-01-22T17:14:47.967Z,18.07
2019-01-22T17:17:14.867Z,23.70
2019-01-22T17:19:41.736Z,25.87
2019-01-22T17:22:08.624Z,21.70
2019-01-22T17:24:35.488Z,20.13
2019-01-22T17:27:07.187Z,21.13
2019-01-22T17:29:31.377Z,22.23
2019-01-22T17:32:13.853Z,20.20
2019-01-22T17:34:45.440Z,25.30
2019-01-22T17:37:12.265Z,21.00
2019-01-22T17:39:39.123Z,18.50
2019-01-22T17:42:05.991Z,21.60
2019-01-22T17:44:32.937Z,21.00
2019-01-22T17:46:59.822Z,22.60
2019-01-22T17:49:26.739Z,16.20
2019-01-22T17:51:53.763Z,22.37
2019-01-22T17:54:20.623Z,24.80
2019-01-22T17:56:47.477Z,25.00
2019-01-22T17:59:14.408Z,21.20
2019-01-22T18:01:41.279Z,25.40
2019-01-22T18:04:08.564Z,26.00
2019-01-22T18:06:35.421Z,26.90
2019-01-22T18:09:04.526Z,24.23
2019-01-22T18:11:31.371Z,25.20
2019-01-22T18:13:58.320Z,24.23
2019-01-22T18:16:25.183Z,25.10
2019-01-22T18:18:52.084Z,22.43
2019-01-22T18:21:18.927Z,23.20
2019-01-22T18:23:45.841Z,23.03
2019-01-22T18:26:12.663Z,23.90
2019-01-22T18:28:39.509Z,25.37
2019-01-22T18:31:06.631Z,22.97
2019-01-22T18:33:33.556Z,24.70
2019-01-22T18:36:00.403Z,25.27
2019-01-22T18:38:27.263Z,28.10
2019-01-22T18:40:54.328Z,25.60
2019-01-22T18:43:21.136Z,25.27
2019-01-22T18:45:48.016Z,24.60
2019-01-22T18:48:14.927Z,22.63
2019-01-22T18:50:41.765Z,22.50
2019-01-22T18:53:08.656Z,23.80
2019-01-22T18:55:35.610Z,20.03
2019-01-22T18:58:02.639Z,20.37
2019-01-22T19:00:29.869Z,20.60
2019-01-22T19:02:57.605Z,22.23
2019-01-22T19:05:24.834Z,22.93
2019-01-22T19:07:52.022Z,19.93
2019-01-22T19:10:19.928Z,23.23
2019-01-22T19:12:46.810Z,19.60
2019-01-22T19:15:14.299Z,22.77
2019-01-22T19:17:41.156Z,23.23
2019-01-22T19:20:08.236Z,23.60
2019-01-22T19:22:35.196Z,24.47
2019-01-22T19:25:02.293Z,24.30
2019-01-22T19:27:34.042Z,23.90
2019-01-22T19:29:57.913Z,23.53
2019-01-22T19:32:24.783Z,23.70
2019-01-22T19:34:51.653Z,23.40
2019-01-22T19:37:18.608Z,21.73
2019-01-22T19:39:45.532Z,22.20
2019-01-22T19:42:12.439Z,19.77
2019-01-22T19:44:39.354Z,25.73
2019-01-22T19:47:06.282Z,22.77
2019-01-22T19:49:33.449Z,19.83
2019-01-22T19:52:00.308Z,19.73
2019-01-22T19:54:27.162Z,22.60
2019-01-22T19:56:54.112Z,25.40
2019-01-22T19:59:20.981Z,24.90
2019-01-22T20:01:47.941Z,24.33
2019-01-22T20:04:16.887Z,23.80
2019-01-22T20:06:43.933Z,22.40
2019-01-22T20:09:10.801Z,24.17
2019-01-22T20:11:37.960Z,24.13
2019-01-22T20:14:05.009Z,25.07
2019-01-22T20:16:32.059Z,23.80
2019-01-22T20:18:58.974Z,25.20
2019-01-22T20:21:25.864Z,23.47
2019-01-22T20:23:52.818Z,22.13
2019-01-22T20:26:19.824Z,25.07
2019-01-22T20:28:46.866Z,23.17
2019-01-22T20:31:13.751Z,25.73
2019-01-22T20:33:41.603Z,24.97
2019-01-22T20:36:08.610Z,25.73
2019-01-22T20:38:35.580Z,26.27
2019-01-22T20:41:02.835Z,24.30
2019-01-22T20:43:29.786Z,24.07
2019-01-22T20:45:56.705Z,21.67
2019-01-22T20:48:23.596Z,26.00
2019-01-22T20:50:50.774Z,24.00
2019-01-22T20:53:17.796Z,24.00
2019-01-22T20:55:44.709Z,25.90
2019-01-22T20:58:11.593Z,27.63
2019-01-22T21:00:38.477Z,26.90
2019-01-22T21:03:05.346Z,27.03
2019-01-22T21:05:32.397Z,27.40
2019-01-22T21:07:59.460Z,30.17
2019-01-22T21:10:27.364Z,29.77
2019-01-22T21:12:54.309Z,26.50
2019-01-22T21:15:21.190Z,26.40
2019-01-22T21:17:48.071Z,29.20
2019-01-22T21:20:15.177Z,32.70
2019-01-22T21:22:42.213Z,31.93
2019-01-22T21:25:10.246Z,26.17
2019-01-22T21:27:37.219Z,27.97
2019-01-22T21:30:04.903Z,29.60
2019-01-22T21:32:31.751Z,28.17
2019-01-22T21:34:58.632Z,30.33
2019-01-22T21:37:25.570Z,30.40
2019-01-22T21:39:52.387Z,26.60
2019-01-22T21:42:19.414Z,30.20
2019-01-22T21:44:58.169Z,30.27
2019-01-22T21:47:25.676Z,33.93
2019-01-22T21:49:52.576Z,25.73
2019-01-22T21:52:19.403Z,31.23
2019-01-22T21:54:46.267Z,30.90
2019-01-22T21:57:13.104Z,27.77
2019-01-22T21:59:40.149Z,29.70
2019-01-22T22:02:06.963Z,29.10
2019-01-22T22:04:33.885Z,27.10
2019-01-22T22:07:00.748Z,29.90
2019-01-22T22:09:27.804Z,27.00
2019-01-22T22:11:54.666Z,30.77
2019-01-22T22:14:21.593Z,32.10
2019-01-22T22:16:48.508Z,30.57
2019-01-22T22:19:15.279Z,31.87
2019-01-22T22:21:42.360Z,31.97
2019-01-22T22:24:09.623Z,33.23
2019-01-22T22:26:37.521Z,31.53
2019-01-22T22:29:04.607Z,30.80
2019-01-22T22:31:32.342Z,31.53
2019-01-22T22:33:59.537Z,35.93
2019-01-22T22:36:26.740Z,30.80
2019-01-22T22:38:54.128Z,27.13
2019-01-22T22:41:21.398Z,33.80
2019-01-22T22:43:48.471Z,30.70
2019-01-22T22:46:15.794Z,37.10
2019-01-22T22:48:42.937Z,36.40
2019-01-22T22:51:09.763Z,34.23
2019-01-22T22:53:36.819Z,35.13
2019-01-22T22:56:03.642Z,35.23
2019-01-22T22:58:30.616Z,33.43
2019-01-22T23:01:29.016Z,38.10
2019-01-22T23:03:55.908Z,39.53
2019-01-22T23:06:22.812Z,37.23
2019-01-22T23:08:49.936Z,35.37
2019-01-22T23:11:16.770Z,35.77
2019-01-22T23:13:43.633Z,41.40
2019-01-22T23:16:10.727Z,37.20
2019-01-22T23:18:37.865Z,38.37
2019-01-22T23:21:05.068Z,40.10
2019-01-22T23:23:31.953Z,40.60
2019-01-22T23:25:58.792Z,41.30
2019-01-22T23:28:28.907Z,40.17
2019-01-22T23:30:54.886Z,32.50
2019-01-22T23:33:22.004Z,30.87
2019-01-22T23:35:49.146Z,36.33
2019-01-22T23:38:16.532Z,39.03
2019-01-22T23:40:43.759Z,31.73
2019-01-22T23:43:14.400Z,27.77
2019-01-22T23:45:41.982Z,39.43
2019-01-22T23:48:09.268Z,29.90
2019-01-22T23:50:36.364Z,23.27
2019-01-22T23:53:05.459Z,32.30
2019-01-22T23:55:32.620Z,38.77
2019-01-22T23:58:00.015Z,31.07
